Flight Track Log - Related Links

Times and Time Zones

All times are in EDT time to prevent confusion due to time zone crossing. See the N244A flight status page for this flight to view local times or setup timezone preferences in your user account.

Time Position Orientation Groundspeed Altitude Reporting Facility
EDT Latitude Longitude Course Direction KTS MPH feet Rate Location/Type
Thu 10:27:42 AM 42.1394 -87.9111 32° Northeast 167 192 35,000  Level Chicago Center
Thu 10:28:44 AM 42.1944 -87.8644 32° Northeast 248 285 3,200 -13,839 Descending Chicago Center
Thu 10:29:46 AM 42.2531 -87.8056 37° Northeast 259 298 6,400 3,408 Climbing Chicago Center
Thu 10:30:49 AM 42.2692 -87.7117 77° East 298 343 10,300 3,600 Climbing Chicago Center
Thu 10:31:51 AM 42.1925 -87.6589 153° Southeast 329 379 13,900 2,613 Climbing Chicago Center
Thu 10:32:53 AM 42.1158 -87.5469 133° Southeast 343 395 15,700 2,226 Climbing Chicago Center
Thu 10:33:55 AM 42.0781 -87.4281 113° Southeast 345 397 18,500 2,323 Climbing Chicago Center
Thu 10:34:57 AM 42.0297 -87.2992 117° Southeast 376 433 20,500 2,129 Climbing Chicago Center
Thu 10:35:59 AM 41.9800 -87.1603 116° Southeast 404 465 22,900 1,984 Climbing Chicago Center
Thu 10:37:01 AM 41.9447 -87.0067 107° East 428 493 24,600 1,452 Climbing Chicago Center
Thu 10:38:03 AM 41.9494 -86.7958 88° East 469 540 25,900 1,597 Climbing Chicago Center
Thu 10:39:05 AM 41.9494 -86.6369 90° East 486 559 27,900 1,984 Climbing Chicago Center
Thu 10:40:07 AM 41.9522 -86.4586 89° East 478 550 30,000 1,645 Climbing Chicago Center
Thu 10:41:09 AM 41.9533 -86.2389 90° East 489 563 31,300 1,161 Climbing Chicago Center
Thu 10:42:11 AM 41.9231 -86.0542 102° East 506 582 32,400 1,392 Climbing Chicago Center
Thu 10:43:14 AM 41.8856 -85.8731 105° East 504 580 34,200 1,248 Climbing Chicago Center
Thu 10:44:16 AM 41.8519 -85.6939 104° East 495 570 35,000 387 Climbing Chicago Center
Thu 10:45:18 AM 41.8153 -85.5075 105° East 509 586 35,000  Level Chicago Center
Thu 10:46:20 AM 41.7758 -85.3136 105° East 524 603 35,000  Level Chicago Center
Thu 10:47:22 AM 41.7356 -85.1242 106° East 524 603 35,000  Level Chicago Center
Thu 10:48:24 AM 41.6967 -84.9325 105° East 533 613 35,000  Level Chicago Center
Thu 10:49:26 AM 41.6619 -84.7047 101° East 527 606 35,000  Level Chicago Center
Thu 10:50:28 AM 41.6181 -84.5183 107° East 528 608 35,000  Level Chicago Center
Thu 10:51:30 AM 41.5472 -84.3533 120° Southeast 515 593 35,000  Level Chicago Center
Thu 10:52:32 AM 41.4753 -84.1878 120° Southeast 515 593 35,000  Level Chicago Center
Thu 10:53:34 AM 41.4072 -84.0189 118° Southeast 518 596 35,000  Level Chicago Center
Thu 10:54:37 AM 41.3386 -83.8519 119° Southeast 516 594 35,000  Level Chicago Center
Thu 10:55:39 AM 41.2547 -83.6525 119° Southeast 515 593 35,000  Level Chicago Center
Thu 10:56:41 AM 41.1853 -83.4875 119° Southeast 513 590 35,000  Level Chicago Center
Thu 10:57:40 AM 41.1178 -83.3303 120° Southeast 513 590 35,000  Level Indianapolis Center
Thu 10:58:42 AM 41.0483 -83.1647 119° Southeast 512 589 35,000  Level Indianapolis Center
Thu 10:59:44 AM 40.9758 -83.0000 120° Southeast 513 590 35,000  Level Indianapolis Center
Thu 11:00:48 AM 40.8897 -82.8053 120° Southeast 518 596 35,000  Level Cleveland Center
Thu 11:01:47 AM 40.8197 -82.6464 120° Southeast 518 596 35,000  Level Cleveland Center
Thu 11:02:47 AM 40.7497 -82.4825 119° Southeast 518 596 35,000  Level Cleveland Center
Thu 11:03:47 AM 40.6792 -82.3217 120° Southeast 512 589 35,000  Level Cleveland Center
Thu 11:04:53 AM 40.6081 -82.1556 119° Southeast 511 588 35,000  Level Indianapolis Center
Thu 11:05:55 AM 40.5364 -81.9919 120° Southeast 515 593 35,000  Level Indianapolis Center
Thu 11:06:56 AM 40.4639 -81.8314 121° Southeast 511 588 35,000  Level Indianapolis Center
Thu 11:07:58 AM 40.3919 -81.6683 120° Southeast 513 590 35,000  Level Indianapolis Center
Thu 11:09:00 AM 40.3053 -81.4811 121° Southeast 513 590 35,000  Level Indianapolis Center
Thu 11:10:02 AM 40.2328 -81.3181 120° Southeast 514 592 35,000  Level Indianapolis Center
Thu 11:11:04 AM 40.1592 -81.1561 121° Southeast 515 593 35,000 -244 Level Indianapolis Center
Thu 11:12:05 AM 40.0853 -80.9958 121° Southeast 514 592 34,500 -976 Descending Indianapolis Center
Thu 11:13:07 AM 40.0103 -80.8300 121° Southeast 525 604 33,000 -726 Descending Indianapolis Center
Thu 11:14:09 AM 39.9403 -80.6800 121° Southeast 522 601 33,000 -97 Level Indianapolis Center
Thu 11:15:11 AM 39.8522 -80.4914 121° Southeast 510 587 32,800 -732 Descending Indianapolis Center
Thu 11:16:12 AM 39.7769 -80.3308 121° Southeast 519 597 31,500 -818 Descending Indianapolis Center
Thu 11:17:23 AM 39.6953 -80.1514 121° Southeast 520 598 31,000 -467 Descending Cleveland Center
Thu 11:19:12 AM 39.5606 -79.8689 122° Southeast 515 593 30,100 -719 Descending Washington Center
Thu 11:20:10 AM 39.4892 -79.7086 120° Southeast 515 593 29,000 -1,210 Descending Washington Center
Thu 11:21:11 AM 39.4153 -79.5514 121° Southeast 515 593 27,700 -1,686 Descending Washington Center
Thu 11:22:11 AM 39.3369 -79.3914 122° Southeast 520 598 25,600 -2,361 Descending Washington Center
Thu 11:23:13 AM 39.2528 -79.2181 122° Southeast 520 598 22,900 -2,723 Descending Washington Center
Thu 11:24:10 AM 39.1842 -79.0728 121° Southeast 496 571 20,200 -2,746 Descending Washington Center
Thu 11:25:11 AM 39.1192 -78.9386 122° Southeast 471 542 17,500 -2,705 Descending Washington Center
Thu 11:26:12 AM 39.0542 -78.8019 121° Southeast 456 525 14,700 -3,025 Descending Washington Center
Thu 11:27:10 AM 38.9928 -78.6764 122° Southeast 435 501 11,500 -2,269 Descending Washington Center
Thu 11:28:11 AM 38.9414 -78.5647 121° Southeast 411 473 10,200 -1,983 Descending Washington Center
Thu 11:29:11 AM 38.8978 -78.4697 121° Southeast 346 398 7,500 -1,587 Descending Washington Center
Thu 11:30:12 AM 38.8539 -78.3853 124° Southeast 308 354 7,000 -250 Descending Washington Center
Thu 11:31:11 AM 38.8081 -78.2875 121° Southeast 308 354 7,000  Level Washington Center
Thu 11:32:11 AM 38.7642 -78.2008 123° Southeast 308 354 7,000  Level Washington Center
Thu 11:33:12 AM 38.7181 -78.1114 123° Southeast 308 354 7,000  Level Washington Center
Thu 11:34:10 AM 38.6742 -78.0194 121° Southeast 308 354 7,000 -454 Level Washington Center
Thu 11:35:11 AM 38.6300 -77.9331 123° Southeast 308 354 6,100 -1,190 Descending Washington Center
Thu 11:36:11 AM 38.5858 -77.8492 124° Southeast 301 346 4,600 -1,059 Descending Washington Center
Thu 11:37:10 AM 38.5478 -77.7658 120° Southeast 284 327 4,000 -500 Descending Washington Center
Thu 11:39:11 AM 38.4500 -77.6167 130° Southeast 269 310 3,100 -446 Descending Potomac TRACON

Login

Don't have an account? Register now (free) for customized features, flight alerts, and more!